createdAt,value
2023-05-06T00:07:21.103Z,22.46
2023-05-06T00:36:17.755Z,22.45
2023-05-06T01:05:12.921Z,22.42
2023-05-06T01:34:01.660Z,22.41
2023-05-06T02:03:04.542Z,22.4
2023-05-06T02:31:56.806Z,22.38
2023-05-06T03:00:50.313Z,22.37
2023-05-06T03:29:45.583Z,22.35
2023-05-06T03:58:37.916Z,22.33
2023-05-06T04:27:35.255Z,22.32
2023-05-06T04:56:31.357Z,22.41
2023-05-06T05:25:26.693Z,22.56
2023-05-06T05:54:27.906Z,22.65
2023-05-06T06:23:22.328Z,22.63
2023-05-06T06:52:05.455Z,22.62
2023-05-06T07:20:51.661Z,22.61
2023-05-06T07:49:41.097Z,22.6
2023-05-06T08:18:27.000Z,22.61
2023-05-06T08:47:10.290Z,22.6
2023-05-06T09:16:05.260Z,22.6
2023-05-06T09:45:03.418Z,22.6
2023-05-06T10:13:33.466Z,22.61
2023-05-06T10:42:28.417Z,22.63
2023-05-06T11:11:17.470Z,22.65
2023-05-06T11:40:19.905Z,22.83
2023-05-06T12:09:05.080Z,22.77
2023-05-06T12:38:00.586Z,22.63
2023-05-06T13:06:43.349Z,22.46
2023-05-06T13:35:37.321Z,22.42
2023-05-06T14:04:15.745Z,22.38
2023-05-06T14:32:57.179Z,22.37
2023-05-06T15:01:44.255Z,22.36
2023-05-06T15:30:22.819Z,22.31
2023-05-06T15:59:11.148Z,22.27
2023-05-06T16:28:04.494Z,22.25
2023-05-06T16:56:53.378Z,22.33
2023-05-06T17:25:22.557Z,22.38
2023-05-06T17:54:20.234Z,22.43
2023-05-06T18:23:12.925Z,22.43
2023-05-06T18:52:03.606Z,22.44
2023-05-06T19:20:56.940Z,22.44
2023-05-06T19:49:50.048Z,22.46
2023-05-06T20:18:33.897Z,22.45
2023-05-06T20:47:25.963Z,22.46
2023-05-06T21:16:21.521Z,22.44
2023-05-06T21:45:19.929Z,22.43
2023-05-06T22:14:13.751Z,22.42
2023-05-06T22:43:02.164Z,22.41
2023-05-06T23:11:57.075Z,22.39
2023-05-06T23:40:55.152Z,22.38
